createdAt,value
2019-05-22T00:01:33.303Z,101687.17
2019-05-22T00:04:06.916Z,101689.34
2019-05-22T00:06:39.427Z,101691.97
2019-05-22T00:09:12.813Z,101688.80
2019-05-22T00:11:44.836Z,101687.42
2019-05-22T00:14:15.977Z,101682.17
2019-05-22T00:16:48.039Z,101685.63
2019-05-22T00:19:20.446Z,101685.17
2019-05-22T00:21:52.346Z,101683.84
2019-05-22T00:24:27.925Z,101679.88
2019-05-22T00:26:58.791Z,101682.83
2019-05-22T00:29:31.759Z,101686.28
2019-05-22T00:32:04.150Z,101688.42
2019-05-22T00:34:36.892Z,101687.53
2019-05-22T00:37:08.259Z,101686.94
2019-05-22T00:39:41.324Z,101694.90
2019-05-22T00:42:13.286Z,101690.42
2019-05-22T00:44:47.188Z,101685.59
2019-05-22T00:47:19.563Z,101682.97
2019-05-22T00:49:53.494Z,101684.66
2019-05-22T00:52:45.331Z,101686.99
2019-05-22T00:55:17.222Z,101683.82
2019-05-22T00:58:05.702Z,101676.80
2019-05-22T01:00:41.412Z,101676.36
2019-05-22T01:03:13.925Z,101683.09
2019-05-22T01:05:44.235Z,101684.63
2019-05-22T01:08:18.453Z,101687.14
2019-05-22T01:10:56.366Z,101687.94
2019-05-22T01:13:32.837Z,101688.30
2019-05-22T01:16:05.948Z,101684.33
2019-05-22T01:18:39.479Z,101688.65
2019-05-22T01:21:11.116Z,101680.63
2019-05-22T01:23:43.645Z,101678.97
2019-05-22T01:26:17.872Z,101678.83
2019-05-22T01:28:49.393Z,101674.00
2019-05-22T01:31:25.231Z,101683.58
2019-05-22T01:34:10.090Z,101689.25
2019-05-22T01:36:45.944Z,101690.09
2019-05-22T01:39:24.797Z,101686.56
2019-05-22T01:41:58.137Z,101683.05
2019-05-22T01:44:30.723Z,101687.80
2019-05-22T01:47:05.501Z,101682.45
2019-05-22T01:49:41.058Z,101685.50
2019-05-22T01:52:13.416Z,101687.65
2019-05-22T01:54:45.372Z,101685.89
2019-05-22T01:57:16.309Z,101683.17
2019-05-22T01:59:47.365Z,101681.28
2019-05-22T02:02:23.506Z,101691.27
2019-05-22T02:04:54.918Z,101686.03
2019-05-22T02:07:27.257Z,101686.20
2019-05-22T02:09:59.609Z,101685.39
2019-05-22T02:12:36.630Z,101684.52
2019-05-22T02:15:09.424Z,101676.27
2019-05-22T02:17:40.705Z,101683.91
2019-05-22T02:20:12.762Z,101671.93
2019-05-22T02:22:45.069Z,101663.92
2019-05-22T02:25:16.963Z,101668.19
2019-05-22T02:27:48.974Z,101669.09
2019-05-22T02:30:23.518Z,101664.75
2019-05-22T02:32:56.465Z,101666.24
2019-05-22T02:35:27.705Z,101667.44
2019-05-22T02:38:00.231Z,101664.69
2019-05-22T02:40:37.168Z,101668.98
2019-05-22T02:43:10.243Z,101667.68
2019-05-22T02:45:42.170Z,101666.54
2019-05-22T02:48:14.667Z,101673.58
2019-05-22T02:50:47.158Z,101670.87
2019-05-22T02:53:20.651Z,101669.11
2019-05-22T02:55:51.428Z,101669.44
2019-05-22T02:58:22.537Z,101669.80
2019-05-22T03:01:03.334Z,101662.35
2019-05-22T03:03:38.121Z,101665.42
2019-05-22T03:06:15.745Z,101661.21
2019-05-22T03:09:05.910Z,101655.89
2019-05-22T03:11:39.797Z,101658.47
2019-05-22T03:14:12.528Z,101660.44
2019-05-22T03:16:56.596Z,101653.38
2019-05-22T03:19:43.669Z,101657.16
2019-05-22T03:22:28.576Z,101648.38
2019-05-22T03:25:04.609Z,101653.38
2019-05-22T03:27:44.518Z,101662.36
2019-05-22T03:30:34.293Z,101662.20
2019-05-22T03:33:08.449Z,101659.69
2019-05-22T03:35:51.965Z,101657.50
2019-05-22T03:38:26.189Z,101653.42
2019-05-22T03:40:57.623Z,101655.94
2019-05-22T03:43:30.282Z,101655.44
2019-05-22T03:46:05.225Z,101650.25
2019-05-22T03:48:37.944Z,101654.08
2019-05-22T03:51:14.864Z,101657.91
2019-05-22T03:53:47.695Z,101648.22
2019-05-22T03:56:22.072Z,101646.00
2019-05-22T03:58:53.683Z,101650.08
2019-05-22T04:01:24.964Z,101648.27
2019-05-22T04:03:55.704Z,101648.34
2019-05-22T04:06:26.050Z,101648.02
2019-05-22T04:08:58.904Z,101652.22
2019-05-22T04:11:32.539Z,101645.91
2019-05-22T04:14:04.589Z,101648.94
2019-05-22T04:16:36.183Z,101645.17
2019-05-22T04:19:08.871Z,101643.44
2019-05-22T04:21:39.686Z,101645.73
2019-05-22T04:24:11.720Z,101647.41
2019-05-22T04:26:43.034Z,101648.67
2019-05-22T04:29:15.049Z,101647.89
2019-05-22T04:31:54.080Z,101646.20
2019-05-22T04:34:24.457Z,101647.09
2019-05-22T04:36:56.545Z,101643.16
2019-05-22T04:39:29.467Z,101647.59
2019-05-22T04:42:02.004Z,101647.20
2019-05-22T04:44:32.756Z,101650.05
2019-05-22T04:47:04.882Z,101651.23
2019-05-22T04:49:35.561Z,101643.95
2019-05-22T04:52:06.177Z,101646.94
2019-05-22T04:54:36.503Z,101642.98
2019-05-22T04:57:08.422Z,101646.10
2019-05-22T04:59:40.859Z,101646.16
2019-05-22T05:02:12.029Z,101643.66
2019-05-22T05:04:42.751Z,101639.34
2019-05-22T05:07:17.596Z,101638.09
2019-05-22T05:09:48.318Z,101634.66
2019-05-22T05:12:18.700Z,101641.27
2019-05-22T05:14:49.324Z,101639.67
2019-05-22T05:17:20.211Z,101648.94
2019-05-22T05:19:51.118Z,101643.03
2019-05-22T05:22:31.267Z,101643.22
2019-05-22T05:25:01.968Z,101643.47
2019-05-22T05:27:32.983Z,101635.41
2019-05-22T05:30:03.981Z,101637.10
2019-05-22T05:32:35.540Z,101636.02
2019-05-22T05:35:07.794Z,101643.13
2019-05-22T05:37:40.206Z,101640.95
2019-05-22T05:40:25.784Z,101640.58
2019-05-22T05:42:57.335Z,101643.04
2019-05-22T05:45:29.261Z,101645.16
2019-05-22T05:48:00.507Z,101644.73
2019-05-22T05:50:39.404Z,101647.25
2019-05-22T05:53:08.289Z,101643.78
2019-05-22T05:56:04.389Z,101645.74
2019-05-22T05:58:35.146Z,101644.20
2019-05-22T06:01:09.964Z,101647.39
2019-05-22T06:03:42.080Z,101644.83
2019-05-22T06:06:25.998Z,101647.24
2019-05-22T06:09:00.954Z,101641.75
2019-05-22T06:11:35.734Z,101645.83
2019-05-22T06:14:09.044Z,101652.58
2019-05-22T06:16:59.144Z,101652.09
2019-05-22T06:19:33.092Z,101654.50
2019-05-22T06:22:04.920Z,101659.03
2019-05-22T06:24:38.669Z,101651.88
2019-05-22T06:27:16.784Z,101660.10
2019-05-22T06:30:00.938Z,101659.03
2019-05-22T06:32:46.281Z,101661.67
2019-05-22T06:35:17.106Z,101657.13
2019-05-22T06:37:59.297Z,101657.17
2019-05-22T06:40:30.951Z,101647.25
2019-05-22T06:43:25.829Z,101650.56
2019-05-22T06:45:56.908Z,101647.58
2019-05-22T06:48:28.045Z,101647.25
2019-05-22T06:50:59.288Z,101650.48
2019-05-22T06:53:29.617Z,101646.39
2019-05-22T06:56:00.042Z,101644.92
2019-05-22T06:58:31.504Z,101650.10
2019-05-22T07:01:03.563Z,101650.45
2019-05-22T07:03:34.685Z,101643.14
2019-05-22T07:06:06.806Z,101648.88
2019-05-22T07:08:38.053Z,101648.48
2019-05-22T07:11:09.453Z,101648.82
2019-05-22T07:13:41.391Z,101652.97
2019-05-22T07:16:12.885Z,101651.82
2019-05-22T07:18:43.899Z,101664.30
2019-05-22T07:21:14.934Z,101661.28
2019-05-22T07:23:47.531Z,101659.74
2019-05-22T07:26:18.232Z,101664.06
2019-05-22T07:28:48.545Z,101651.79
2019-05-22T07:31:21.148Z,101659.88
2019-05-22T07:33:55.850Z,101654.95
2019-05-22T07:36:28.762Z,101664.70
2019-05-22T07:38:59.476Z,101659.66
2019-05-22T07:41:31.343Z,101655.70
2019-05-22T07:44:02.615Z,101659.59
2019-05-22T07:46:34.742Z,101654.15
2019-05-22T07:49:06.044Z,101656.18
2019-05-22T07:51:50.543Z,101649.63
2019-05-22T07:54:11.937Z,101656.41
2019-05-22T07:56:45.855Z,101656.97
2019-05-22T07:59:15.983Z,101664.56
2019-05-22T08:01:48.406Z,101662.24
2019-05-22T08:04:19.708Z,101663.47
2019-05-22T08:06:50.568Z,101667.33
2019-05-22T08:09:21.987Z,101663.84
2019-05-22T08:11:53.333Z,101663.37
2019-05-22T08:14:25.405Z,101661.16
2019-05-22T08:16:56.905Z,101660.09
2019-05-22T08:19:27.846Z,101653.89
2019-05-22T08:22:07.313Z,101651.22
2019-05-22T08:24:32.162Z,101650.66
2019-05-22T08:27:05.421Z,101650.66
2019-05-22T08:29:36.240Z,101651.20
2019-05-22T08:32:08.989Z,101650.59
2019-05-22T08:34:42.271Z,101655.24
2019-05-22T08:37:16.197Z,101661.58
2019-05-22T08:39:47.328Z,101649.76
2019-05-22T08:42:21.627Z,101651.63
2019-05-22T08:44:52.886Z,101652.14
2019-05-22T08:47:24.185Z,101659.75
2019-05-22T08:49:55.622Z,101660.16
2019-05-22T08:52:28.503Z,101658.81
2019-05-22T08:55:02.091Z,101661.36
2019-05-22T08:57:34.472Z,101660.80
2019-05-22T09:00:08.478Z,101662.92
2019-05-22T09:02:39.589Z,101662.22
2019-05-22T09:05:10.999Z,101663.09
2019-05-22T09:07:44.572Z,101667.20
2019-05-22T09:10:16.384Z,101674.55
2019-05-22T09:12:47.538Z,101671.39
2019-05-22T09:15:18.598Z,101662.72
2019-05-22T09:17:50.634Z,101658.95
2019-05-22T09:20:22.711Z,101664.16
2019-05-22T09:22:53.751Z,101663.81
2019-05-22T09:25:24.734Z,101659.77
2019-05-22T09:27:56.582Z,101666.05
2019-05-22T09:30:27.290Z,101660.17
2019-05-22T09:33:00.706Z,101659.70
2019-05-22T09:35:31.702Z,101652.44
2019-05-22T09:38:02.370Z,101658.59
2019-05-22T09:40:33.081Z,101648.52
2019-05-22T09:43:05.787Z,101660.17
2019-05-22T09:45:38.294Z,101648.48
2019-05-22T09:48:09.015Z,101646.93
2019-05-22T09:50:39.840Z,101651.27
2019-05-22T09:53:11.767Z,101655.86
2019-05-22T09:55:47.130Z,101654.20
2019-05-22T09:58:15.820Z,101649.43
2019-05-22T10:00:46.741Z,101655.19
2019-05-22T10:03:19.016Z,101653.70
2019-05-22T10:05:50.159Z,101655.70
2019-05-22T10:08:22.133Z,101651.64
2019-05-22T10:10:52.845Z,101654.72
2019-05-22T10:13:28.965Z,101650.92
2019-05-22T10:15:58.675Z,101653.24
2019-05-22T10:18:30.072Z,101650.61
2019-05-22T10:21:01.126Z,101648.05
2019-05-22T10:23:33.028Z,101643.03
2019-05-22T10:26:04.710Z,101640.81
2019-05-22T10:28:36.488Z,101637.09
2019-05-22T10:31:08.982Z,101636.44
2019-05-22T10:33:41.219Z,101639.70
2019-05-22T10:36:12.158Z,101640.08
2019-05-22T10:38:43.314Z,101638.02
2019-05-22T10:41:14.128Z,101639.92
2019-05-22T10:43:46.145Z,101645.40
2019-05-22T10:46:16.960Z,101640.66
2019-05-22T10:48:48.793Z,101637.65
2019-05-22T10:51:19.408Z,101643.17
2019-05-22T10:53:50.137Z,101643.85
2019-05-22T10:56:20.681Z,101638.85
2019-05-22T10:58:52.116Z,101651.02
2019-05-22T11:01:23.567Z,101644.66
2019-05-22T11:03:56.450Z,101644.76
2019-05-22T11:06:27.756Z,101644.27
2019-05-22T11:08:59.666Z,101648.00
2019-05-22T11:11:32.133Z,101645.84
2019-05-22T11:14:04.864Z,101639.28
2019-05-22T11:16:35.232Z,101642.91
2019-05-22T11:19:06.071Z,101642.75
2019-05-22T11:21:36.594Z,101640.70
2019-05-22T11:24:07.845Z,101640.00
2019-05-22T11:26:38.267Z,101635.30
2019-05-22T11:29:10.088Z,101629.53
2019-05-22T11:31:40.873Z,101635.52
2019-05-22T11:34:11.427Z,101632.27
2019-05-22T11:36:42.422Z,101637.78
2019-05-22T11:39:18.742Z,101632.22
2019-05-22T11:41:49.255Z,101628.34
2019-05-22T11:44:21.116Z,101627.88
2019-05-22T11:46:53.213Z,101629.89
2019-05-22T11:49:26.537Z,101632.75
2019-05-22T11:51:57.692Z,101628.44
2019-05-22T11:54:29.167Z,101638.24
2019-05-22T11:56:59.743Z,101631.07
2019-05-22T11:59:31.438Z,101633.17
2019-05-22T12:02:02.273Z,101631.50
2019-05-22T12:04:47.382Z,101628.34
2019-05-22T12:07:07.795Z,101619.00
2019-05-22T12:09:40.898Z,101621.88
2019-05-22T12:12:11.654Z,101625.42
2019-05-22T12:14:42.559Z,101619.69
2019-05-22T12:17:14.311Z,101620.91
2019-05-22T12:19:48.321Z,101613.16
2019-05-22T12:22:20.000Z,101611.12
2019-05-22T12:24:51.554Z,101607.34
2019-05-22T12:27:21.880Z,101602.87
2019-05-22T12:29:54.338Z,101604.70
2019-05-22T12:32:25.224Z,101608.97
2019-05-22T12:34:56.804Z,101593.34
2019-05-22T12:37:28.054Z,101601.19
2019-05-22T12:40:01.570Z,101599.67
2019-05-22T12:42:33.068Z,101596.54
2019-05-22T12:45:05.610Z,101594.98
2019-05-22T12:47:36.408Z,101594.58
2019-05-22T12:50:09.612Z,101601.55
2019-05-22T12:52:40.862Z,101587.94
2019-05-22T12:55:11.816Z,101594.09
2019-05-22T12:57:42.287Z,101593.39
2019-05-22T13:00:14.105Z,101590.20
2019-05-22T13:02:45.336Z,101588.83
2019-05-22T13:05:17.382Z,101586.55
2019-05-22T13:07:48.231Z,101580.82
2019-05-22T13:10:20.296Z,101582.09
2019-05-22T13:12:51.102Z,101577.14
2019-05-22T13:15:25.345Z,101572.28
2019-05-22T13:17:58.077Z,101563.73
2019-05-22T13:20:42.363Z,101567.22
2019-05-22T13:23:07.581Z,101574.86
2019-05-22T13:25:41.638Z,101569.61
2019-05-22T13:28:14.646Z,101569.51
2019-05-22T13:30:48.551Z,101557.61
2019-05-22T13:33:22.690Z,101562.90
2019-05-22T13:35:56.980Z,101560.84
2019-05-22T13:38:28.457Z,101563.95
2019-05-22T13:41:01.418Z,101554.00
2019-05-22T13:43:32.935Z,101550.82
2019-05-22T13:46:03.972Z,101556.05
2019-05-22T13:48:35.458Z,101552.05
2019-05-22T13:51:08.728Z,101551.26
2019-05-22T13:53:40.989Z,101547.88
2019-05-22T13:56:12.913Z,101554.14
2019-05-22T13:58:44.245Z,101544.44
2019-05-22T14:01:15.693Z,101547.75
2019-05-22T14:03:46.230Z,101550.28
2019-05-22T14:06:17.442Z,101535.02
2019-05-22T14:08:47.847Z,101532.83
2019-05-22T14:11:19.180Z,101531.00
2019-05-22T14:13:50.190Z,101526.94
2019-05-22T14:16:22.014Z,101526.02
2019-05-22T14:18:52.436Z,101527.41
2019-05-22T14:21:22.986Z,101531.34
2019-05-22T14:23:53.392Z,101527.66
2019-05-22T14:26:23.942Z,101520.84
2019-05-22T14:28:54.686Z,101513.17
2019-05-22T14:31:25.998Z,101512.55
2019-05-22T14:33:57.124Z,101508.34
2019-05-22T14:36:29.302Z,101511.83
2019-05-22T14:38:59.851Z,101509.69
2019-05-22T14:41:30.879Z,101516.31
2019-05-22T14:44:01.193Z,101513.75
2019-05-22T14:46:33.281Z,101516.47
2019-05-22T14:49:03.883Z,101513.34
2019-05-22T14:51:34.927Z,101508.33
2019-05-22T14:54:06.049Z,101508.34
2019-05-22T14:56:36.520Z,101511.28
2019-05-22T14:59:07.185Z,101513.99
2019-05-22T15:01:38.167Z,101499.80
2019-05-22T15:04:08.480Z,101499.19
2019-05-22T15:06:39.137Z,101505.48
2019-05-22T15:09:10.776Z,101501.18
2019-05-22T15:11:41.976Z,101496.08
2019-05-22T15:14:12.224Z,101490.48
2019-05-22T15:16:42.863Z,101490.25
2019-05-22T15:19:14.630Z,101485.95
2019-05-22T15:21:44.863Z,101479.86
2019-05-22T15:24:15.424Z,101488.16
2019-05-22T15:26:46.063Z,101485.56
2019-05-22T15:29:16.447Z,101478.92
2019-05-22T15:31:48.177Z,101478.00
2019-05-22T15:34:19.909Z,101472.09
2019-05-22T15:36:51.383Z,101463.25
2019-05-22T15:39:25.886Z,101469.41
2019-05-22T15:41:57.319Z,101460.89
2019-05-22T15:44:28.384Z,101459.38
2019-05-22T15:47:00.875Z,101465.95
2019-05-22T15:49:33.292Z,101461.77
2019-05-22T15:52:07.514Z,101463.09
2019-05-22T15:54:40.314Z,101456.47
2019-05-22T15:57:12.601Z,101460.83
2019-05-22T15:59:45.550Z,101459.73
2019-05-22T16:02:21.523Z,101446.23
2019-05-22T16:04:53.592Z,101449.36
2019-05-22T16:07:24.833Z,101443.50
2019-05-22T16:09:56.022Z,101443.03
2019-05-22T16:12:28.881Z,101441.58
2019-05-22T16:15:01.541Z,101445.02
2019-05-22T16:17:33.615Z,101442.23
2019-05-22T16:20:08.833Z,101446.52
2019-05-22T16:22:39.492Z,101443.31
2019-05-22T16:25:11.063Z,101442.72
2019-05-22T16:27:43.432Z,101433.44
2019-05-22T16:30:14.645Z,101437.91
2019-05-22T16:32:46.981Z,101433.39
2019-05-22T16:35:18.415Z,101434.69
2019-05-22T16:37:50.738Z,101430.75
2019-05-22T16:40:22.555Z,101426.52
2019-05-22T16:42:55.490Z,101431.21
2019-05-22T16:45:26.926Z,101428.42
2019-05-22T16:48:02.165Z,101429.76
2019-05-22T16:50:32.590Z,101428.77
2019-05-22T16:53:06.618Z,101427.91
2019-05-22T16:55:39.658Z,101423.84
2019-05-22T16:58:13.074Z,101416.37
2019-05-22T17:00:45.816Z,101422.05
2019-05-22T17:03:18.149Z,101423.61
2019-05-22T17:05:50.007Z,101421.42
2019-05-22T17:08:23.857Z,101423.05
2019-05-22T17:10:54.467Z,101422.67
2019-05-22T17:13:25.702Z,101418.23
2019-05-22T17:15:57.530Z,101423.03
2019-05-22T17:18:46.098Z,101425.23
2019-05-22T17:21:05.715Z,101418.75
2019-05-22T17:23:37.355Z,101425.02
2019-05-22T17:26:10.161Z,101423.33
2019-05-22T17:28:41.266Z,101418.34
2019-05-22T17:31:11.886Z,101420.76
2019-05-22T17:33:43.353Z,101414.97
2019-05-22T17:36:16.431Z,101418.14
2019-05-22T17:38:47.955Z,101423.63
2019-05-22T17:41:19.700Z,101423.42
2019-05-22T17:43:50.842Z,101422.34
2019-05-22T17:46:21.571Z,101422.62
2019-05-22T17:48:54.354Z,101418.05
2019-05-22T17:51:25.588Z,101422.70
2019-05-22T17:53:57.262Z,101417.09
2019-05-22T17:56:28.547Z,101423.33
2019-05-22T17:58:59.233Z,101421.93
2019-05-22T18:01:30.368Z,101421.44
2019-05-22T18:04:02.441Z,101424.48
2019-05-22T18:06:33.536Z,101426.78
2019-05-22T18:09:08.032Z,101424.77
2019-05-22T18:11:38.833Z,101419.58
2019-05-22T18:14:13.514Z,101424.70
2019-05-22T18:16:43.966Z,101417.27
2019-05-22T18:19:15.179Z,101417.83
2019-05-22T18:21:45.999Z,101417.39
2019-05-22T18:24:16.969Z,101420.02
2019-05-22T18:26:47.943Z,101417.86
2019-05-22T18:29:19.080Z,101418.12
2019-05-22T18:31:50.242Z,101413.87
2019-05-22T18:34:22.109Z,101411.21
2019-05-22T18:36:52.769Z,101410.48
2019-05-22T18:39:24.668Z,101408.92
2019-05-22T18:41:55.026Z,101412.09
2019-05-22T18:44:26.297Z,101416.62
2019-05-22T18:49:27.903Z,101410.15
2019-05-22T18:51:59.019Z,101412.08
2019-05-22T18:54:29.316Z,101407.44
2019-05-22T18:57:00.140Z,101403.80
2019-05-22T18:59:31.596Z,101413.39
2019-05-22T19:02:02.094Z,101414.06
2019-05-22T19:04:32.569Z,101414.84
2019-05-22T19:07:04.113Z,101419.40
2019-05-22T19:09:35.565Z,101414.33
2019-05-22T19:12:06.637Z,101419.00
2019-05-22T19:14:38.406Z,101420.25
2019-05-22T19:17:09.531Z,101419.98
2019-05-22T19:19:42.728Z,101425.88
2019-05-22T19:22:13.563Z,101422.61
2019-05-22T19:24:44.111Z,101421.42
2019-05-22T19:27:15.104Z,101420.13
2019-05-22T19:29:46.629Z,101417.69
2019-05-22T19:32:17.920Z,101419.59
2019-05-22T19:34:49.177Z,101419.25
2019-05-22T19:37:20.219Z,101416.80
2019-05-22T19:39:53.364Z,101424.94
2019-05-22T19:42:24.464Z,101415.84
2019-05-22T19:44:55.276Z,101427.05
2019-05-22T19:47:25.825Z,101426.75
2019-05-22T19:49:59.065Z,101431.33
2019-05-22T19:52:41.045Z,101434.06
2019-05-22T19:55:07.139Z,101429.30
2019-05-22T19:57:38.713Z,101433.41
2019-05-22T20:00:11.100Z,101431.83
2019-05-22T20:02:42.761Z,101432.44
2019-05-22T20:05:14.217Z,101437.41
2019-05-22T20:07:45.157Z,101438.84
2019-05-22T20:10:17.549Z,101444.18
2019-05-22T20:12:49.066Z,101441.11
2019-05-22T20:15:20.676Z,101448.17
2019-05-22T20:17:52.746Z,101448.20
2019-05-22T20:20:28.701Z,101452.59
2019-05-22T20:22:59.865Z,101455.73
2019-05-22T20:25:31.260Z,101451.47
2019-05-22T20:28:03.093Z,101455.91
2019-05-22T20:30:35.078Z,101454.59
2019-05-22T20:33:06.195Z,101453.80
2019-05-22T20:35:38.598Z,101453.87
2019-05-22T20:38:09.123Z,101455.27
2019-05-22T20:40:42.544Z,101455.74
2019-05-22T20:43:14.765Z,101459.23
2019-05-22T20:45:45.999Z,101457.99
2019-05-22T20:48:29.978Z,101457.19
2019-05-22T20:51:01.423Z,101459.94
2019-05-22T20:53:33.152Z,101460.34
2019-05-22T20:56:05.284Z,101457.68
2019-05-22T20:58:36.726Z,101462.52
2019-05-22T21:01:08.453Z,101458.10
2019-05-22T21:03:40.404Z,101461.60
2019-05-22T21:06:15.709Z,101464.27
2019-05-22T21:08:47.770Z,101464.76
2019-05-22T21:11:22.324Z,101466.63
2019-05-22T21:13:54.913Z,101468.45
2019-05-22T21:16:26.727Z,101463.66
2019-05-22T21:18:57.818Z,101459.32
2019-05-22T21:21:29.890Z,101458.95
2019-05-22T21:24:11.285Z,101462.49
2019-05-22T21:26:35.226Z,101458.62
2019-05-22T21:29:07.387Z,101461.30
2019-05-22T21:31:39.082Z,101456.09
2019-05-22T21:34:10.243Z,101458.38
2019-05-22T21:36:42.051Z,101464.59
2019-05-22T21:39:13.400Z,101465.11
2019-05-22T21:41:44.864Z,101462.06
2019-05-22T21:44:16.895Z,101463.52
2019-05-22T21:46:48.758Z,101470.59
2019-05-22T21:49:19.696Z,101465.75
2019-05-22T21:51:50.634Z,101465.78
2019-05-22T21:54:21.670Z,101456.57
2019-05-22T21:56:54.866Z,101459.21
2019-05-22T21:59:25.503Z,101457.45
2019-05-22T22:01:58.534Z,101460.55
2019-05-22T22:04:34.327Z,101457.89
2019-05-22T22:07:07.102Z,101457.88
2019-05-22T22:09:38.371Z,101458.75
2019-05-22T22:12:09.732Z,101458.32
2019-05-22T22:14:42.070Z,101461.38
2019-05-22T22:17:16.479Z,101463.56
2019-05-22T22:19:47.395Z,101462.25
2019-05-22T22:22:25.323Z,101463.16
2019-05-22T22:24:56.038Z,101457.06
2019-05-22T22:27:30.395Z,101455.78
2019-05-22T22:30:02.932Z,101454.48
2019-05-22T22:32:36.256Z,101455.39
2019-05-22T22:35:10.469Z,101454.09
2019-05-22T22:37:45.041Z,101461.16
2019-05-22T22:40:18.895Z,101460.28
2019-05-22T22:42:51.976Z,101455.94
2019-05-22T22:45:41.573Z,101459.91
2019-05-22T22:48:16.761Z,101453.76
2019-05-22T22:50:50.148Z,101450.71
2019-05-22T22:53:21.415Z,101453.36
2019-05-22T22:55:52.195Z,101452.05
2019-05-22T22:58:23.637Z,101449.41
2019-05-22T23:00:55.511Z,101453.83
2019-05-22T23:03:30.205Z,101452.09
2019-05-22T23:06:01.643Z,101449.89
2019-05-22T23:08:35.653Z,101451.27
2019-05-22T23:11:07.326Z,101450.80
2019-05-22T23:13:39.934Z,101456.53
2019-05-22T23:16:12.084Z,101449.52
2019-05-22T23:18:46.329Z,101452.15
2019-05-22T23:21:17.485Z,101450.41
2019-05-22T23:23:47.989Z,101447.77
2019-05-22T23:26:19.705Z,101449.98
2019-05-22T23:28:51.750Z,101446.46
2019-05-22T23:31:24.078Z,101442.53
2019-05-22T23:33:57.411Z,101447.78
2019-05-22T23:36:28.762Z,101448.20
2019-05-22T23:39:02.213Z,101446.01
2019-05-22T23:41:34.930Z,101445.12
2019-05-22T23:44:13.041Z,101439.39
2019-05-22T23:46:44.585Z,101438.45
2019-05-22T23:49:17.460Z,101441.09
2019-05-22T23:51:48.647Z,101435.80
2019-05-22T23:54:22.809Z,101435.30
2019-05-22T23:56:54.657Z,101436.16
2019-05-22T23:59:25.786Z,101435.69
